ANA212 EGLL-RJTT
Flight info
| Callsign | ANA212 |
|---|---|
| Flight time | N/A |
| Altitude | 31000 |
| Route | DET L6 DVR L9 KONAN UL607 MATUG DCT GUBAX DCT KOMIB L984 SULUS Z650 VEMUT DCT PEPIK DCT BERVA DCT ERGOM DCT BUDOP DCT DVA DCT BULEN DCT RIXEN UA17 YAVRU/N0488F330 UA4 SIV UW706 TBN UN61 NOLGA DCT BARAD DCT SUBUT T916 BALUN/K0906F330 T916 INLIG/K0900F350 T916 MIHOS N147 GENGA DCT SARIN/K0902S1070 A368 FKG W188 LIKMI W270 DKO W69 BIKUT/K0895S1130 W69 HUR B339 LADIX W34 VAPGU W100 ORAVA W201 UNSEK A326 DONVO G597 AGAVO/N0492F370 Y644 EGOBA Y697 LANAT Y71 XAC |
| Aircraft | B77W/H-SDE1E2E3FGHIJ2J3J4J5M1RWXY/LB1D1 |
Departure
| Time | N/A |
|---|---|
| Airport | London Heathrow Airport (EGLL) |
Arrival
| Time | 2026-04-30 09:44 |
|---|---|
| Airport | Tokyo Haneda International Airport (RJTT) |
| Time | Latitude | Longitude | Altitude | Speed | Heading |
|---|---|---|---|---|---|
| 2026-04-30 07:03 | 40.40042 | 115.93218 | 36883 ft | 492 kts | 91° |
| 2026-04-30 07:04 | 40.39423 | 116.00701 | 36891 ft | 492 kts | 92° |
| 2026-04-30 07:04 | 40.38553 | 116.11085 | 36876 ft | 492 kts | 92° |
| 2026-04-30 07:05 | 40.37538 | 116.23022 | 36878 ft | 491 kts | 92° |
| 2026-04-30 07:05 | 40.36783 | 116.31873 | 36890 ft | 491 kts | 92° |
| 2026-04-30 07:06 | 40.36010 | 116.40759 | 36889 ft | 490 kts | 92° |
| 2026-04-30 07:06 | 40.35235 | 116.49639 | 36873 ft | 490 kts | 92° |
| 2026-04-30 07:07 | 40.34454 | 116.58514 | 36902 ft | 490 kts | 92° |
| 2026-04-30 07:07 | 40.33187 | 116.67279 | 36874 ft | 496 kts | 111° |
| 2026-04-30 07:08 | 40.31359 | 116.71136 | 36879 ft | 503 kts | 129° |
| 2026-04-30 07:08 | 40.28729 | 116.74166 | 36891 ft | 507 kts | 146° |
| 2026-04-30 07:08 | 40.25585 | 116.76282 | 36875 ft | 510 kts | 161° |
| 2026-04-30 07:08 | 40.22136 | 116.77279 | 36895 ft | 508 kts | 173° |
| 2026-04-30 07:09 | 40.15088 | 116.78483 | 36890 ft | 512 kts | 173° |
| 2026-04-30 07:09 | 40.08005 | 116.79785 | 36888 ft | 516 kts | 172° |
| 2026-04-30 07:10 | 40.00930 | 116.81193 | 36886 ft | 518 kts | 172° |
| 2026-04-30 07:10 | 39.93762 | 116.82638 | 36881 ft | 518 kts | 172° |
| 2026-04-30 07:11 | 39.86647 | 116.84059 | 36876 ft | 516 kts | 172° |
| 2026-04-30 07:11 | 39.79595 | 116.85460 | 36877 ft | 515 kts | 172° |
| 2026-04-30 07:12 | 39.72482 | 116.86919 | 36878 ft | 514 kts | 171° |
| 2026-04-30 07:12 | 39.65440 | 116.88391 | 36892 ft | 512 kts | 171° |
| 2026-04-30 07:13 | 39.58393 | 116.89856 | 36882 ft | 511 kts | 172° |
| 2026-04-30 07:13 | 39.51410 | 116.91299 | 36890 ft | 511 kts | 172° |
| 2026-04-30 07:14 | 39.44381 | 116.92746 | 36899 ft | 512 kts | 172° |
| 2026-04-30 07:14 | 39.37306 | 116.94201 | 36899 ft | 512 kts | 172° |
| 2026-04-30 07:15 | 39.30254 | 116.95649 | 36899 ft | 513 kts | 172° |
| 2026-04-30 07:15 | 39.23187 | 116.97097 | 36909 ft | 515 kts | 172° |
| 2026-04-30 07:16 | 39.19710 | 116.98146 | 36887 ft | 513 kts | 158° |
| 2026-04-30 07:16 | 39.16599 | 117.00350 | 36920 ft | 510 kts | 140° |
| 2026-04-30 07:16 | 39.14107 | 117.03562 | 36913 ft | 506 kts | 124° |
| 2026-04-30 07:16 | 39.12253 | 117.07381 | 36914 ft | 502 kts | 112° |
| 2026-04-30 07:17 | 39.11070 | 117.11578 | 36897 ft | 495 kts | 97° |
| 2026-04-30 07:17 | 39.10512 | 117.15934 | 36910 ft | 493 kts | 94° |
| 2026-04-30 07:18 | 39.09009 | 117.29127 | 36906 ft | 499 kts | 96° |
| 2026-04-30 07:18 | 39.07917 | 117.37957 | 36913 ft | 498 kts | 92° |
| 2026-04-30 07:19 | 39.07698 | 117.46762 | 36908 ft | 495 kts | 86° |
| 2026-04-30 07:19 | 39.07661 | 117.55626 | 36916 ft | 495 kts | 86° |
| 2026-04-30 07:20 | 39.07577 | 117.64489 | 36904 ft | 494 kts | 87° |
| 2026-04-30 07:20 | 39.07457 | 117.73312 | 36913 ft | 492 kts | 87° |
| 2026-04-30 07:21 | 39.07329 | 117.82122 | 36911 ft | 491 kts | 87° |
| 2026-04-30 07:21 | 39.07198 | 117.90855 | 36909 ft | 490 kts | 87° |
| 2026-04-30 07:22 | 39.06864 | 118.04012 | 36909 ft | 492 kts | 92° |
| 2026-04-30 07:22 | 39.05622 | 118.12716 | 36911 ft | 496 kts | 99° |
| 2026-04-30 07:23 | 39.04170 | 118.21390 | 36923 ft | 496 kts | 98° |
| 2026-04-30 07:23 | 39.02760 | 118.30075 | 36922 ft | 496 kts | 98° |
| 2026-04-30 07:24 | 39.01374 | 118.38762 | 36942 ft | 496 kts | 98° |
| 2026-04-30 07:24 | 38.99979 | 118.47452 | 36930 ft | 496 kts | 98° |
| 2026-04-30 07:25 | 38.98574 | 118.56150 | 36929 ft | 496 kts | 98° |
| 2026-04-30 07:25 | 38.97169 | 118.64835 | 36929 ft | 496 kts | 98° |
| 2026-04-30 07:26 | 38.95767 | 118.73463 | 36938 ft | 496 kts | 99° |
| 2026-04-30 07:26 | 38.94354 | 118.82117 | 36930 ft | 495 kts | 99° |
| 2026-04-30 07:27 | 38.92933 | 118.90779 | 36934 ft | 495 kts | 99° |
| 2026-04-30 07:27 | 38.91507 | 118.99432 | 36948 ft | 495 kts | 99° |
| 2026-04-30 07:28 | 38.90073 | 119.08066 | 36933 ft | 494 kts | 99° |
| 2026-04-30 07:28 | 38.88615 | 119.16747 | 36937 ft | 494 kts | 99° |
| 2026-04-30 07:29 | 38.87161 | 119.25370 | 36949 ft | 494 kts | 99° |
| 2026-04-30 07:29 | 38.85703 | 119.33987 | 36937 ft | 494 kts | 99° |
| 2026-04-30 07:30 | 38.83507 | 119.46894 | 36945 ft | 493 kts | 99° |
| 2026-04-30 07:31 | 38.82043 | 119.55444 | 36952 ft | 494 kts | 100° |
| 2026-04-30 07:31 | 38.80565 | 119.64044 | 36943 ft | 494 kts | 100° |
| 2026-04-30 07:32 | 38.79078 | 119.72651 | 36940 ft | 494 kts | 100° |
| 2026-04-30 07:32 | 38.77590 | 119.81235 | 36943 ft | 494 kts | 100° |
| 2026-04-30 07:33 | 38.76165 | 119.89845 | 36949 ft | 493 kts | 99° |
| 2026-04-30 07:33 | 38.74779 | 119.98468 | 36943 ft | 494 kts | 100° |
| 2026-04-30 07:34 | 38.73319 | 120.07006 | 36949 ft | 494 kts | 100° |
| 2026-04-30 07:34 | 38.71377 | 120.15398 | 36942 ft | 495 kts | 119° |
| 2026-04-30 07:34 | 38.69277 | 120.18881 | 36954 ft | 497 kts | 136° |
| 2026-04-30 07:35 | 38.66507 | 120.21532 | 36961 ft | 499 kts | 150° |
| 2026-04-30 07:35 | 38.63313 | 120.23259 | 36943 ft | 499 kts | 165° |
| 2026-04-30 07:35 | 38.60016 | 120.24537 | 36930 ft | 495 kts | 154° |
| 2026-04-30 07:35 | 38.57151 | 120.26958 | 36969 ft | 496 kts | 134° |
| 2026-04-30 07:36 | 38.55059 | 120.30438 | 36955 ft | 496 kts | 115° |
| 2026-04-30 07:36 | 38.53973 | 120.34595 | 36963 ft | 494 kts | 95° |
| 2026-04-30 07:36 | 38.53994 | 120.38896 | 36952 ft | 491 kts | 76° |
| 2026-04-30 07:36 | 38.55030 | 120.43034 | 36970 ft | 489 kts | 64° |
| 2026-04-30 07:37 | 38.56464 | 120.46975 | 36936 ft | 489 kts | 68° |
| 2026-04-30 07:37 | 38.57179 | 120.51236 | 36977 ft | 495 kts | 88° |
| 2026-04-30 07:37 | 38.56843 | 120.55626 | 36971 ft | 499 kts | 99° |
| 2026-04-30 07:38 | 38.55059 | 120.64259 | 36972 ft | 505 kts | 105° |
| 2026-04-30 07:38 | 38.53251 | 120.72875 | 36949 ft | 497 kts | 102° |
| 2026-04-30 07:39 | 38.51773 | 120.81448 | 36965 ft | 493 kts | 100° |
| 2026-04-30 07:39 | 38.50398 | 120.90010 | 36961 ft | 491 kts | 100° |
| 2026-04-30 07:40 | 38.49005 | 120.98546 | 36968 ft | 491 kts | 101° |
| 2026-04-30 07:40 | 38.47588 | 121.07080 | 36965 ft | 491 kts | 101° |
| 2026-04-30 07:41 | 38.46175 | 121.15555 | 36963 ft | 491 kts | 100° |
| 2026-04-30 07:41 | 38.44866 | 121.24088 | 36971 ft | 492 kts | 99° |
| 2026-04-30 07:42 | 38.43502 | 121.32650 | 36957 ft | 493 kts | 101° |
| 2026-04-30 07:42 | 38.42070 | 121.41230 | 36969 ft | 494 kts | 101° |
| 2026-04-30 07:43 | 38.40649 | 121.49817 | 36963 ft | 495 kts | 101° |
| 2026-04-30 07:43 | 38.39219 | 121.58417 | 36971 ft | 496 kts | 102° |
| 2026-04-30 07:44 | 38.37789 | 121.66970 | 36972 ft | 496 kts | 102° |
| 2026-04-30 07:44 | 38.36339 | 121.75601 | 36974 ft | 497 kts | 102° |
| 2026-04-30 07:45 | 38.35133 | 121.82760 | 36974 ft | 497 kts | 102° |
| 2026-04-30 07:45 | 38.33437 | 121.92776 | 36967 ft | 497 kts | 102° |
| 2026-04-30 07:46 | 38.32210 | 121.99983 | 36973 ft | 497 kts | 102° |
| 2026-04-30 07:46 | 38.30739 | 122.08589 | 36976 ft | 497 kts | 103° |
| 2026-04-30 07:47 | 38.29273 | 122.17136 | 36973 ft | 497 kts | 103° |
| 2026-04-30 07:47 | 38.27783 | 122.25782 | 36977 ft | 497 kts | 102° |
| 2026-04-30 07:48 | 38.26533 | 122.34448 | 36989 ft | 497 kts | 100° |
| 2026-04-30 07:48 | 38.24930 | 122.42959 | 36972 ft | 493 kts | 115° |
| 2026-04-30 07:49 | 38.21359 | 122.50266 | 36979 ft | 489 kts | 134° |
| 2026-04-30 07:49 | 38.16496 | 122.56384 | 36978 ft | 489 kts | 137° |
| 2026-04-30 07:50 | 38.11656 | 122.62484 | 36975 ft | 490 kts | 136° |
| 2026-04-30 07:50 | 38.06883 | 122.68664 | 36986 ft | 490 kts | 136° |
| 2026-04-30 07:51 | 38.02120 | 122.74864 | 36995 ft | 490 kts | 136° |
| 2026-04-30 07:51 | 37.97350 | 122.81060 | 36988 ft | 490 kts | 136° |
| 2026-04-30 07:52 | 37.92585 | 122.87230 | 36980 ft | 490 kts | 136° |
| 2026-04-30 07:52 | 37.87782 | 122.93435 | 36991 ft | 489 kts | 137° |
| 2026-04-30 07:53 | 37.83025 | 122.99567 | 36982 ft | 488 kts | 137° |
| 2026-04-30 07:53 | 37.78224 | 123.05745 | 36993 ft | 488 kts | 137° |
| 2026-04-30 07:54 | 37.73465 | 123.11857 | 36993 ft | 488 kts | 137° |
| 2026-04-30 07:54 | 37.68721 | 123.17938 | 36983 ft | 487 kts | 137° |
| 2026-04-30 07:55 | 37.63962 | 123.24029 | 36991 ft | 487 kts | 137° |
| 2026-04-30 07:55 | 37.59205 | 123.30105 | 36994 ft | 486 kts | 138° |
| 2026-04-30 07:56 | 37.54690 | 123.36483 | 36989 ft | 489 kts | 130° |
| 2026-04-30 07:56 | 37.50635 | 123.43371 | 36990 ft | 490 kts | 130° |
| 2026-04-30 07:57 | 37.46571 | 123.50287 | 36996 ft | 491 kts | 130° |
| 2026-04-30 07:57 | 37.42476 | 123.57170 | 36994 ft | 491 kts | 130° |
| 2026-04-30 07:58 | 37.38356 | 123.64048 | 36994 ft | 492 kts | 130° |
| 2026-04-30 07:58 | 37.34225 | 123.70932 | 36977 ft | 492 kts | 131° |
| 2026-04-30 07:59 | 37.30103 | 123.77790 | 36990 ft | 492 kts | 131° |
| 2026-04-30 07:59 | 37.25941 | 123.84703 | 36994 ft | 492 kts | 131° |
| 2026-04-30 08:00 | 37.19759 | 123.94976 | 36997 ft | 492 kts | 128° |
| 2026-04-30 08:00 | 37.18088 | 123.98756 | 37000 ft | 499 kts | 116° |
| 2026-04-30 08:00 | 37.17084 | 124.02942 | 37006 ft | 506 kts | 104° |
| 2026-04-30 08:01 | 37.16759 | 124.07363 | 37003 ft | 513 kts | 91° |
| 2026-04-30 08:01 | 37.16976 | 124.11840 | 36993 ft | 515 kts | 89° |
| 2026-04-30 08:01 | 37.17483 | 124.20805 | 37002 ft | 515 kts | 90° |
| 2026-04-30 08:02 | 37.17844 | 124.34239 | 37003 ft | 516 kts | 92° |
| 2026-04-30 08:03 | 37.18243 | 124.52263 | 36983 ft | 518 kts | 92° |
| 2026-04-30 08:04 | 37.18445 | 124.61299 | 37002 ft | 518 kts | 93° |
| 2026-04-30 08:04 | 37.18638 | 124.70342 | 36999 ft | 519 kts | 93° |
| 2026-04-30 08:05 | 37.18825 | 124.79401 | 36988 ft | 518 kts | 93° |
| 2026-04-30 08:05 | 37.19007 | 124.88439 | 36993 ft | 519 kts | 93° |
| 2026-04-30 08:06 | 37.19191 | 124.97503 | 37001 ft | 519 kts | 93° |
| 2026-04-30 08:06 | 37.19369 | 125.06564 | 37001 ft | 520 kts | 94° |
| 2026-04-30 08:07 | 37.19539 | 125.15634 | 36998 ft | 520 kts | 94° |
| 2026-04-30 08:07 | 37.19702 | 125.24705 | 36996 ft | 520 kts | 94° |
| 2026-04-30 08:08 | 37.19858 | 125.33776 | 36990 ft | 520 kts | 94° |
| 2026-04-30 08:08 | 37.20008 | 125.42858 | 36988 ft | 521 kts | 94° |
| 2026-04-30 08:09 | 37.20149 | 125.51951 | 36956 ft | 522 kts | 94° |
| 2026-04-30 08:09 | 37.20269 | 125.61051 | 36993 ft | 522 kts | 94° |
| 2026-04-30 08:10 | 37.20383 | 125.70168 | 36978 ft | 522 kts | 94° |
| 2026-04-30 08:10 | 37.20492 | 125.79275 | 36956 ft | 522 kts | 94° |
| 2026-04-30 08:11 | 37.20595 | 125.88397 | 36973 ft | 523 kts | 94° |
| 2026-04-30 08:11 | 37.20692 | 125.97458 | 36975 ft | 523 kts | 95° |
| 2026-04-30 08:12 | 37.20783 | 126.06603 | 36973 ft | 524 kts | 95° |
| 2026-04-30 08:12 | 37.20866 | 126.15748 | 36969 ft | 524 kts | 95° |
| 2026-04-30 08:13 | 37.20943 | 126.24897 | 36958 ft | 524 kts | 95° |
| 2026-04-30 08:13 | 37.21014 | 126.34041 | 36964 ft | 524 kts | 95° |
| 2026-04-30 08:14 | 37.21077 | 126.43183 | 36973 ft | 524 kts | 95° |
| 2026-04-30 08:14 | 37.21135 | 126.52399 | 36932 ft | 525 kts | 95° |
| 2026-04-30 08:15 | 37.21191 | 126.61510 | 36950 ft | 526 kts | 95° |
| 2026-04-30 08:15 | 37.21233 | 126.69214 | 36965 ft | 526 kts | 95° |
| 2026-04-30 08:16 | 37.21278 | 126.78395 | 36912 ft | 527 kts | 95° |
| 2026-04-30 08:16 | 37.21321 | 126.87591 | 36926 ft | 527 kts | 95° |
| 2026-04-30 08:17 | 37.21948 | 126.96780 | 36932 ft | 537 kts | 77° |
| 2026-04-30 08:17 | 37.23287 | 127.01172 | 36914 ft | 543 kts | 65° |
| 2026-04-30 08:17 | 37.25289 | 127.05211 | 36931 ft | 547 kts | 51° |
| 2026-04-30 08:18 | 37.30417 | 127.12261 | 36945 ft | 549 kts | 47° |
| 2026-04-30 08:18 | 37.35609 | 127.19324 | 36942 ft | 550 kts | 49° |
| 2026-04-30 08:19 | 37.39963 | 127.27020 | 36952 ft | 540 kts | 74° |
| 2026-04-30 08:19 | 37.40806 | 127.31575 | 36969 ft | 533 kts | 90° |
| 2026-04-30 08:19 | 37.40841 | 127.36197 | 36920 ft | 526 kts | 103° |
| 2026-04-30 08:19 | 37.40118 | 127.40631 | 36921 ft | 510 kts | 115° |
| 2026-04-30 08:20 | 37.39036 | 127.44878 | 36948 ft | 511 kts | 115° |
| 2026-04-30 08:20 | 37.36895 | 127.53450 | 36906 ft | 514 kts | 115° |
| 2026-04-30 08:21 | 37.34820 | 127.62065 | 36910 ft | 516 kts | 114° |
| 2026-04-30 08:21 | 37.32765 | 127.70731 | 36907 ft | 516 kts | 114° |
| 2026-04-30 08:22 | 37.30714 | 127.79368 | 36892 ft | 516 kts | 114° |
| 2026-04-30 08:22 | 37.28658 | 127.87985 | 36903 ft | 515 kts | 115° |
| 2026-04-30 08:23 | 37.26595 | 127.96572 | 36869 ft | 512 kts | 115° |
| 2026-04-30 08:23 | 37.24533 | 128.05115 | 36930 ft | 511 kts | 115° |
| 2026-04-30 08:24 | 37.22470 | 128.13676 | 36910 ft | 514 kts | 115° |
| 2026-04-30 08:24 | 37.20384 | 128.22258 | 36873 ft | 514 kts | 116° |
| 2026-04-30 08:25 | 37.18290 | 128.30839 | 36952 ft | 516 kts | 116° |
| 2026-04-30 08:25 | 37.16195 | 128.39411 | 36920 ft | 518 kts | 115° |
| 2026-04-30 08:26 | 37.14078 | 128.48046 | 36960 ft | 517 kts | 116° |
| 2026-04-30 08:26 | 37.11962 | 128.56658 | 36936 ft | 517 kts | 116° |
| 2026-04-30 08:27 | 37.09841 | 128.65259 | 36947 ft | 516 kts | 116° |
| 2026-04-30 08:27 | 37.07710 | 128.73842 | 36936 ft | 515 kts | 116° |
| 2026-04-30 08:28 | 37.05594 | 128.82376 | 36950 ft | 516 kts | 116° |
| 2026-04-30 08:28 | 37.03448 | 128.90960 | 36922 ft | 517 kts | 117° |
| 2026-04-30 08:29 | 37.01302 | 128.99542 | 36961 ft | 516 kts | 117° |
| 2026-04-30 08:29 | 36.99144 | 129.08113 | 36955 ft | 516 kts | 117° |
| 2026-04-30 08:30 | 36.96979 | 129.16694 | 36961 ft | 518 kts | 117° |
| 2026-04-30 08:30 | 36.94802 | 129.25302 | 36971 ft | 520 kts | 117° |
| 2026-04-30 08:31 | 36.92621 | 129.33913 | 37003 ft | 520 kts | 117° |
| 2026-04-30 08:31 | 36.90424 | 129.42526 | 36989 ft | 521 kts | 117° |
| 2026-04-30 08:32 | 36.88212 | 129.51177 | 36983 ft | 524 kts | 117° |
| 2026-04-30 08:32 | 36.85986 | 129.59858 | 36945 ft | 525 kts | 118° |
| 2026-04-30 08:33 | 36.83750 | 129.68552 | 37000 ft | 526 kts | 117° |
| 2026-04-30 08:33 | 36.81514 | 129.77211 | 36985 ft | 528 kts | 117° |
| 2026-04-30 08:34 | 36.79259 | 129.85922 | 36977 ft | 528 kts | 118° |
| 2026-04-30 08:34 | 36.76993 | 129.94639 | 36989 ft | 528 kts | 118° |
| 2026-04-30 08:35 | 36.74719 | 130.03359 | 36952 ft | 528 kts | 118° |
| 2026-04-30 08:35 | 36.72440 | 130.12067 | 36978 ft | 529 kts | 118° |
| 2026-04-30 08:36 | 36.70149 | 130.20785 | 36983 ft | 530 kts | 118° |
| 2026-04-30 08:36 | 36.67848 | 130.29519 | 36970 ft | 530 kts | 118° |
| 2026-04-30 08:37 | 36.65552 | 130.38203 | 36979 ft | 531 kts | 118° |
| 2026-04-30 08:37 | 36.63232 | 130.46948 | 36982 ft | 532 kts | 119° |
| 2026-04-30 08:38 | 36.60901 | 130.55706 | 36972 ft | 533 kts | 119° |
| 2026-04-30 08:38 | 36.58558 | 130.64479 | 36981 ft | 535 kts | 119° |
| 2026-04-30 08:39 | 36.56200 | 130.73277 | 36975 ft | 536 kts | 119° |
| 2026-04-30 08:39 | 36.53833 | 130.82085 | 36984 ft | 537 kts | 119° |
| 2026-04-30 08:40 | 36.51458 | 130.90892 | 36976 ft | 537 kts | 119° |
| 2026-04-30 08:40 | 36.49098 | 130.99618 | 37004 ft | 536 kts | 119° |
| 2026-04-30 08:41 | 36.46713 | 131.08398 | 36994 ft | 537 kts | 119° |
| 2026-04-30 08:41 | 36.44315 | 131.17204 | 36972 ft | 536 kts | 119° |
| 2026-04-30 08:42 | 36.41918 | 131.25974 | 36976 ft | 536 kts | 119° |
| 2026-04-30 08:42 | 36.39515 | 131.34740 | 36974 ft | 536 kts | 119° |
| 2026-04-30 08:43 | 36.37123 | 131.43441 | 36973 ft | 536 kts | 120° |
| 2026-04-30 08:43 | 36.34653 | 131.52162 | 36976 ft | 535 kts | 120° |
| 2026-04-30 08:44 | 36.32147 | 131.60844 | 36959 ft | 535 kts | 120° |
| 2026-04-30 08:44 | 36.29632 | 131.69546 | 36971 ft | 536 kts | 120° |
| 2026-04-30 08:45 | 36.27102 | 131.78307 | 36939 ft | 537 kts | 121° |
| 2026-04-30 08:45 | 36.24583 | 131.87022 | 36974 ft | 537 kts | 121° |
| 2026-04-30 08:46 | 36.22055 | 131.95739 | 36976 ft | 538 kts | 121° |
| 2026-04-30 08:46 | 36.19529 | 132.04419 | 36967 ft | 538 kts | 121° |
| 2026-04-30 08:47 | 36.16983 | 132.13139 | 36970 ft | 539 kts | 121° |
| 2026-04-30 08:47 | 36.14430 | 132.21858 | 36942 ft | 539 kts | 121° |
| 2026-04-30 08:48 | 36.11868 | 132.30582 | 37003 ft | 539 kts | 121° |
| 2026-04-30 08:48 | 36.09293 | 132.39315 | 36972 ft | 540 kts | 121° |
| 2026-04-30 08:49 | 36.06717 | 132.48034 | 36970 ft | 539 kts | 121° |
| 2026-04-30 08:49 | 36.04134 | 132.56747 | 36973 ft | 539 kts | 121° |
| 2026-04-30 08:50 | 36.01547 | 132.65442 | 36959 ft | 538 kts | 121° |
| 2026-04-30 08:50 | 35.98957 | 132.74124 | 36974 ft | 538 kts | 121° |
| 2026-04-30 08:51 | 35.96375 | 132.82749 | 36966 ft | 538 kts | 121° |
| 2026-04-30 08:51 | 35.93773 | 132.91414 | 36973 ft | 538 kts | 121° |
| 2026-04-30 08:52 | 35.91161 | 133.00090 | 36976 ft | 538 kts | 121° |
| 2026-04-30 08:52 | 35.88548 | 133.08741 | 36970 ft | 538 kts | 121° |
| 2026-04-30 08:53 | 35.85931 | 133.17379 | 36978 ft | 538 kts | 121° |
| 2026-04-30 08:53 | 35.83299 | 133.26039 | 36956 ft | 539 kts | 121° |
| 2026-04-30 08:54 | 35.80663 | 133.34686 | 36979 ft | 539 kts | 121° |
| 2026-04-30 08:54 | 35.78017 | 133.43340 | 36947 ft | 540 kts | 121° |
| 2026-04-30 08:55 | 35.75361 | 133.52003 | 36975 ft | 540 kts | 121° |
| 2026-04-30 08:55 | 35.72697 | 133.60667 | 37011 ft | 541 kts | 122° |
| 2026-04-30 08:56 | 35.70023 | 133.69330 | 36967 ft | 541 kts | 122° |
| 2026-04-30 08:56 | 35.67800 | 133.76521 | 36975 ft | 542 kts | 122° |
| 2026-04-30 08:57 | 35.65115 | 133.85179 | 36949 ft | 541 kts | 122° |
| 2026-04-30 08:57 | 35.61992 | 133.95217 | 36973 ft | 541 kts | 122° |
| 2026-04-30 08:58 | 35.59732 | 134.02459 | 36989 ft | 541 kts | 122° |
| 2026-04-30 08:58 | 35.57046 | 134.11040 | 36958 ft | 541 kts | 122° |
| 2026-04-30 08:59 | 35.54323 | 134.19719 | 36965 ft | 541 kts | 122° |
| 2026-04-30 08:59 | 35.51613 | 134.28332 | 36966 ft | 540 kts | 122° |
| 2026-04-30 09:00 | 35.48906 | 134.36906 | 36966 ft | 538 kts | 122° |
| 2026-04-30 09:00 | 35.46185 | 134.45478 | 36952 ft | 539 kts | 122° |
| 2026-04-30 09:01 | 35.43481 | 134.54015 | 37009 ft | 537 kts | 122° |
| 2026-04-30 09:01 | 35.40760 | 134.62560 | 37006 ft | 538 kts | 122° |
| 2026-04-30 09:02 | 35.36662 | 134.75370 | 37045 ft | 538 kts | 122° |
| 2026-04-30 09:02 | 35.33902 | 134.83977 | 37014 ft | 538 kts | 122° |
| 2026-04-30 09:03 | 35.31139 | 134.92558 | 37021 ft | 538 kts | 122° |
| 2026-04-30 09:03 | 35.28390 | 135.01089 | 37023 ft | 539 kts | 122° |
| 2026-04-30 09:04 | 35.25629 | 135.09625 | 37023 ft | 539 kts | 122° |
| 2026-04-30 09:04 | 35.22860 | 135.18155 | 37001 ft | 539 kts | 122° |
| 2026-04-30 09:05 | 35.20086 | 135.26671 | 37004 ft | 538 kts | 122° |
| 2026-04-30 09:05 | 35.17316 | 135.35175 | 37010 ft | 539 kts | 122° |
| 2026-04-30 09:06 | 35.14534 | 135.43678 | 37027 ft | 539 kts | 122° |
| 2026-04-30 09:06 | 35.11725 | 135.52232 | 37024 ft | 539 kts | 122° |
| 2026-04-30 09:07 | 35.08928 | 135.60738 | 37031 ft | 540 kts | 122° |
| 2026-04-30 09:07 | 35.06127 | 135.69233 | 37027 ft | 538 kts | 122° |
| 2026-04-30 09:08 | 35.03325 | 135.77696 | 37076 ft | 537 kts | 122° |
| 2026-04-30 09:08 | 35.00946 | 135.86452 | 37046 ft | 554 kts | 111° |
| 2026-04-30 09:09 | 34.99462 | 135.95737 | 37057 ft | 559 kts | 109° |
| 2026-04-30 09:09 | 34.98034 | 136.05058 | 37069 ft | 558 kts | 109° |
| 2026-04-30 09:10 | 34.96551 | 136.14296 | 37062 ft | 557 kts | 109° |
| 2026-04-30 09:10 | 34.95022 | 136.23550 | 37076 ft | 557 kts | 110° |
| 2026-04-30 09:11 | 34.93484 | 136.32811 | 37065 ft | 557 kts | 109° |
| 2026-04-30 09:11 | 34.91948 | 136.42066 | 37087 ft | 557 kts | 110° |
| 2026-04-30 09:12 | 34.90382 | 136.51449 | 37094 ft | 557 kts | 110° |
| 2026-04-30 09:12 | 34.88835 | 136.60683 | 37084 ft | 556 kts | 110° |
| 2026-04-30 09:13 | 34.87291 | 136.69907 | 37101 ft | 555 kts | 110° |
| 2026-04-30 09:13 | 34.85748 | 136.79119 | 37105 ft | 555 kts | 110° |
| 2026-04-30 09:14 | 34.84195 | 136.88335 | 37093 ft | 555 kts | 110° |
| 2026-04-30 09:14 | 34.82737 | 136.97525 | 37085 ft | 559 kts | 106° |
| 2026-04-30 09:15 | 34.81688 | 137.06921 | 37097 ft | 561 kts | 104° |
| 2026-04-30 09:15 | 34.80690 | 137.16350 | 37097 ft | 562 kts | 104° |
| 2026-04-30 09:16 | 34.79652 | 137.25783 | 37078 ft | 562 kts | 105° |
| 2026-04-30 09:16 | 34.78586 | 137.35190 | 37099 ft | 562 kts | 105° |
| 2026-04-30 09:17 | 34.77507 | 137.44615 | 37107 ft | 562 kts | 105° |
| 2026-04-30 09:17 | 34.76419 | 137.54092 | 37107 ft | 562 kts | 105° |
| 2026-04-30 09:18 | 34.75333 | 137.63509 | 37113 ft | 562 kts | 105° |
| 2026-04-30 09:18 | 34.74281 | 137.72935 | 37116 ft | 563 kts | 104° |
| 2026-04-30 09:19 | 34.73394 | 137.82405 | 37129 ft | 564 kts | 103° |
| 2026-04-30 09:19 | 34.72506 | 137.91864 | 37130 ft | 563 kts | 103° |
| 2026-04-30 09:20 | 34.71584 | 138.01329 | 37136 ft | 563 kts | 102° |
| 2026-04-30 09:20 | 34.71309 | 138.10846 | 36900 ft | 558 kts | 95° |
| 2026-04-30 09:21 | 34.71366 | 138.15496 | 36131 ft | 547 kts | 94° |
| 2026-04-30 09:21 | 34.71432 | 138.20129 | 34873 ft | 548 kts | 94° |
| 2026-04-30 09:21 | 34.71487 | 138.24776 | 33470 ft | 550 kts | 94° |
| 2026-04-30 09:21 | 34.71524 | 138.29434 | 31970 ft | 550 kts | 94° |
| 2026-04-30 09:22 | 34.71546 | 138.34071 | 30546 ft | 548 kts | 93° |
| 2026-04-30 09:22 | 34.71561 | 138.38652 | 29617 ft | 533 kts | 93° |
| 2026-04-30 09:22 | 34.71574 | 138.43067 | 29016 ft | 511 kts | 93° |
| 2026-04-30 09:22 | 34.71584 | 138.47323 | 28483 ft | 499 kts | 92° |
| 2026-04-30 09:23 | 34.71589 | 138.51550 | 27940 ft | 501 kts | 92° |
| 2026-04-30 09:23 | 34.71590 | 138.55833 | 27391 ft | 512 kts | 92° |
| 2026-04-30 09:23 | 34.71590 | 138.60230 | 26833 ft | 527 kts | 92° |
| 2026-04-30 09:23 | 34.71593 | 138.64696 | 26218 ft | 528 kts | 92° |
| 2026-04-30 09:24 | 34.71597 | 138.69150 | 25625 ft | 525 kts | 91° |
| 2026-04-30 09:24 | 34.71600 | 138.72077 | 25230 ft | 522 kts | 91° |
| 2026-04-30 09:24 | 34.71602 | 138.76481 | 24651 ft | 519 kts | 91° |
| 2026-04-30 09:24 | 34.71598 | 138.82273 | 23853 ft | 516 kts | 91° |
| 2026-04-30 09:25 | 34.71580 | 138.86629 | 23157 ft | 513 kts | 91° |
| 2026-04-30 09:25 | 34.71563 | 138.89552 | 22740 ft | 508 kts | 91° |
| 2026-04-30 09:25 | 34.71538 | 138.93786 | 22128 ft | 491 kts | 91° |
| 2026-04-30 09:25 | 34.71514 | 138.97840 | 21554 ft | 469 kts | 91° |
| 2026-04-30 09:26 | 34.71493 | 139.01718 | 21028 ft | 449 kts | 91° |
| 2026-04-30 09:26 | 34.71472 | 139.05444 | 20515 ft | 434 kts | 91° |
| 2026-04-30 09:26 | 34.71448 | 139.09108 | 20052 ft | 436 kts | 91° |
| 2026-04-30 09:26 | 34.71422 | 139.12847 | 19546 ft | 450 kts | 91° |
| 2026-04-30 09:27 | 34.71394 | 139.16700 | 18991 ft | 459 kts | 91° |
| 2026-04-30 09:27 | 34.71367 | 139.20588 | 18417 ft | 459 kts | 91° |
| 2026-04-30 09:27 | 34.71339 | 139.24456 | 17784 ft | 456 kts | 91° |
| 2026-04-30 09:27 | 34.71310 | 139.28301 | 17204 ft | 451 kts | 91° |
| 2026-04-30 09:28 | 34.71280 | 139.32086 | 16754 ft | 444 kts | 91° |
| 2026-04-30 09:28 | 34.71250 | 139.35705 | 16552 ft | 412 kts | 91° |
| 2026-04-30 09:28 | 34.71225 | 139.39089 | 16113 ft | 390 kts | 89° |
| 2026-04-30 09:28 | 34.71606 | 139.42283 | 15358 ft | 379 kts | 68° |
| 2026-04-30 09:29 | 34.72796 | 139.45087 | 14466 ft | 370 kts | 57° |
| 2026-04-30 09:29 | 34.74101 | 139.47793 | 13655 ft | 370 kts | 58° |
| 2026-04-30 09:29 | 34.75378 | 139.50523 | 13387 ft | 366 kts | 59° |
| 2026-04-30 09:29 | 34.76658 | 139.53290 | 13227 ft | 372 kts | 59° |
| 2026-04-30 09:30 | 34.77913 | 139.56021 | 13013 ft | 368 kts | 59° |
| 2026-04-30 09:30 | 34.79147 | 139.58715 | 12982 ft | 359 kts | 59° |
| 2026-04-30 09:30 | 34.80340 | 139.61324 | 12976 ft | 346 kts | 59° |
| 2026-04-30 09:30 | 34.81488 | 139.63836 | 12971 ft | 333 kts | 59° |
| 2026-04-30 09:31 | 34.82605 | 139.66282 | 12970 ft | 319 kts | 59° |
| 2026-04-30 09:31 | 34.83659 | 139.68590 | 12974 ft | 305 kts | 59° |
| 2026-04-30 09:31 | 34.84690 | 139.70850 | 12990 ft | 306 kts | 59° |
| 2026-04-30 09:31 | 34.85721 | 139.73114 | 13028 ft | 305 kts | 59° |
| 2026-04-30 09:32 | 34.86858 | 139.75255 | 12909 ft | 297 kts | 42° |
| 2026-04-30 09:32 | 34.88493 | 139.76738 | 12583 ft | 291 kts | 28° |
| 2026-04-30 09:32 | 34.90216 | 139.78036 | 12202 ft | 290 kts | 28° |
| 2026-04-30 09:32 | 34.91927 | 139.79336 | 11834 ft | 289 kts | 29° |
| 2026-04-30 09:33 | 34.93603 | 139.80636 | 11554 ft | 280 kts | 30° |
| 2026-04-30 09:33 | 34.95209 | 139.81903 | 11169 ft | 270 kts | 31° |
| 2026-04-30 09:33 | 34.96760 | 139.83140 | 10831 ft | 259 kts | 31° |
| 2026-04-30 09:33 | 34.98254 | 139.84339 | 10599 ft | 260 kts | 31° |
| 2026-04-30 09:34 | 34.99796 | 139.85580 | 10366 ft | 271 kts | 31° |
| 2026-04-30 09:34 | 35.01382 | 139.86861 | 10119 ft | 272 kts | 32° |
| 2026-04-30 09:34 | 35.02951 | 139.88133 | 9839 ft | 269 kts | 32° |
| 2026-04-30 09:34 | 35.04519 | 139.89407 | 9567 ft | 265 kts | 32° |
| 2026-04-30 09:35 | 35.06041 | 139.90645 | 9343 ft | 261 kts | 32° |
| 2026-04-30 09:35 | 35.07543 | 139.91869 | 9102 ft | 258 kts | 33° |
| 2026-04-30 09:35 | 35.09034 | 139.93082 | 8871 ft | 259 kts | 33° |
| 2026-04-30 09:35 | 35.10541 | 139.94310 | 8674 ft | 262 kts | 33° |
| 2026-04-30 09:36 | 35.12061 | 139.95548 | 8432 ft | 262 kts | 33° |
| 2026-04-30 09:36 | 35.13572 | 139.96780 | 8201 ft | 260 kts | 33° |
| 2026-04-30 09:36 | 35.15127 | 139.97854 | 7932 ft | 254 kts | 16° |
| 2026-04-30 09:36 | 35.16859 | 139.98066 | 7674 ft | 249 kts | 358° |
| 2026-04-30 09:37 | 35.18609 | 139.98089 | 7405 ft | 254 kts | 359° |
| 2026-04-30 09:37 | 35.20411 | 139.98146 | 7106 ft | 256 kts | 360° |
| 2026-04-30 09:37 | 35.22168 | 139.98206 | 6801 ft | 255 kts | 0° |
| 2026-04-30 09:37 | 35.23960 | 139.98268 | 6513 ft | 254 kts | 0° |
| 2026-04-30 09:38 | 35.25705 | 139.98238 | 6200 ft | 247 kts | 348° |
| 2026-04-30 09:38 | 35.27230 | 139.97420 | 5935 ft | 240 kts | 325° |
| 2026-04-30 09:38 | 35.28639 | 139.96316 | 5676 ft | 243 kts | 327° |
| 2026-04-30 09:38 | 35.30114 | 139.95259 | 5390 ft | 247 kts | 329° |
| 2026-04-30 09:39 | 35.31629 | 139.94192 | 5108 ft | 247 kts | 329° |
| 2026-04-30 09:39 | 35.33089 | 139.93163 | 5039 ft | 236 kts | 329° |
| 2026-04-30 09:39 | 35.34505 | 139.92161 | 4832 ft | 235 kts | 330° |
| 2026-04-30 09:39 | 35.35920 | 139.91159 | 4516 ft | 234 kts | 331° |
| 2026-04-30 09:40 | 35.37331 | 139.90159 | 4051 ft | 236 kts | 331° |
| 2026-04-30 09:40 | 35.38779 | 139.89132 | 3451 ft | 245 kts | 332° |
| 2026-04-30 09:40 | 35.40252 | 139.88088 | 3077 ft | 242 kts | 332° |
| 2026-04-30 09:40 | 35.41706 | 139.87056 | 2766 ft | 235 kts | 332° |
| 2026-04-30 09:41 | 35.43087 | 139.86074 | 2420 ft | 223 kts | 333° |
| 2026-04-30 09:41 | 35.44394 | 139.85147 | 2120 ft | 211 kts | 333° |
| 2026-04-30 09:41 | 35.45608 | 139.84285 | 1841 ft | 190 kts | 333° |
| 2026-04-30 09:41 | 35.46702 | 139.83508 | 1593 ft | 173 kts | 334° |
| 2026-04-30 09:42 | 35.47700 | 139.82800 | 1363 ft | 159 kts | 333° |
| 2026-04-30 09:42 | 35.48634 | 139.82136 | 1157 ft | 154 kts | 334° |
| 2026-04-30 09:42 | 35.49566 | 139.81476 | 986 ft | 156 kts | 333° |
| 2026-04-30 09:42 | 35.50504 | 139.80808 | 758 ft | 153 kts | 332° |
| 2026-04-30 09:43 | 35.51407 | 139.80140 | 535 ft | 150 kts | 330° |
| 2026-04-30 09:43 | 35.52318 | 139.79497 | 406 ft | 152 kts | 333° |
| 2026-04-30 09:43 | 35.53253 | 139.78842 | 168 ft | 152 kts | 332° |
| 2026-04-30 09:43 | 35.54143 | 139.78217 | 34 ft | 144 kts | 332° |
| 2026-04-30 09:44 | 35.54914 | 139.77680 | 30 ft | 104 kts | 329° |
| 2026-04-30 09:44 | 35.55382 | 139.77349 | 29 ft | 50 kts | 329° |
| 2026-04-30 09:44 | 35.55518 | 139.77288 | 29 ft | 18 kts | 21° |
| 2026-04-30 09:44 | 35.55569 | 139.77364 | 28 ft | 7 kts | 57° |
| 2026-04-30 09:45 | 35.55595 | 139.77412 | 28 ft | 7 kts | 57° |
| 2026-04-30 09:45 | 35.55597 | 139.77448 | 28 ft | 7 kts | 113° |
| 2026-04-30 09:45 | 35.55557 | 139.77479 | 28 ft | 7 kts | 152° |
| 2026-04-30 09:45 | 35.55501 | 139.77516 | 28 ft | 7 kts | 151° |
| 2026-04-30 09:46 | 35.55459 | 139.77544 | 28 ft | 7 kts | 151° |
| 2026-04-30 09:46 | 35.55431 | 139.77563 | 28 ft | 7 kts | 149° |
| 2026-04-30 09:46 | 35.55390 | 139.77593 | 28 ft | 7 kts | 149° |
| 2026-04-30 09:46 | 35.55349 | 139.77623 | 28 ft | 7 kts | 149° |
| 2026-04-30 09:47 | 35.55307 | 139.77653 | 28 ft | 7 kts | 150° |
| 2026-04-30 09:47 | 35.55247 | 139.77695 | 28 ft | 8 kts | 150° |
| 2026-04-30 09:47 | 35.55216 | 139.77717 | 28 ft | 8 kts | 150° |
| 2026-04-30 09:47 | 35.55164 | 139.77753 | 28 ft | 9 kts | 150° |
| 2026-04-30 09:48 | 35.55109 | 139.77792 | 28 ft | 9 kts | 149° |
| 2026-04-30 09:48 | 35.55050 | 139.77834 | 28 ft | 10 kts | 149° |
| 2026-04-30 09:48 | 35.54989 | 139.77878 | 28 ft | 11 kts | 149° |
| 2026-04-30 09:48 | 35.54924 | 139.77924 | 28 ft | 11 kts | 150° |
| 2026-04-30 09:49 | 35.54858 | 139.77971 | 28 ft | 11 kts | 150° |
| 2026-04-30 09:49 | 35.54792 | 139.78018 | 28 ft | 11 kts | 150° |
| 2026-04-30 09:49 | 35.54726 | 139.78064 | 28 ft | 11 kts | 150° |
| 2026-04-30 09:49 | 35.54660 | 139.78111 | 28 ft | 11 kts | 149° |
| 2026-04-30 09:50 | 35.54595 | 139.78158 | 28 ft | 11 kts | 149° |
| 2026-04-30 09:50 | 35.54529 | 139.78205 | 28 ft | 11 kts | 149° |
| 2026-04-30 09:50 | 35.54463 | 139.78253 | 28 ft | 11 kts | 149° |
| 2026-04-30 09:50 | 35.54394 | 139.78301 | 29 ft | 11 kts | 150° |
| 2026-04-30 09:51 | 35.54324 | 139.78350 | 29 ft | 11 kts | 150° |
| 2026-04-30 09:51 | 35.54258 | 139.78401 | 29 ft | 11 kts | 134° |
| 2026-04-30 09:51 | 35.54263 | 139.78488 | 29 ft | 11 kts | 62° |
| 2026-04-30 09:51 | 35.54302 | 139.78573 | 29 ft | 11 kts | 60° |
| 2026-04-30 09:52 | 35.54341 | 139.78656 | 29 ft | 11 kts | 59° |
| 2026-04-30 09:52 | 35.54382 | 139.78739 | 29 ft | 11 kts | 59° |
| 2026-04-30 09:52 | 35.54421 | 139.78822 | 29 ft | 11 kts | 60° |
| 2026-04-30 09:52 | 35.54461 | 139.78906 | 30 ft | 11 kts | 59° |
| 2026-04-30 09:53 | 35.54500 | 139.78990 | 30 ft | 11 kts | 60° |
| 2026-04-30 09:53 | 35.54539 | 139.79074 | 30 ft | 11 kts | 60° |
| 2026-04-30 09:53 | 35.54578 | 139.79158 | 29 ft | 12 kts | 60° |
| 2026-04-30 09:53 | 35.54620 | 139.79246 | 29 ft | 12 kts | 59° |
| 2026-04-30 09:54 | 35.54662 | 139.79330 | 29 ft | 9 kts | 57° |
| 2026-04-30 09:54 | 35.54720 | 139.79342 | 29 ft | 8 kts | 334° |
| 2026-04-30 09:54 | 35.54765 | 139.79309 | 29 ft | 5 kts | 328° |
| 2026-04-30 09:54 | 35.54784 | 139.79295 | 29 ft | 0 kts | 329° |